Time;durP1;ratioP1;P1;durP2;ratioP2;P2;SDS_P1;SDS_P2;PMS_P1;PMS_P2;Temp;Humidity;BMP_temperature;BMP_pressure;BME280_temperature;BME280_humidity;BME280_pressure;Samples;Min_cycle;Max_cycle;Signal;HPM_P1;HPM_P2
2022/01/22 00:01:59;;;;;;;10.80;5.82;;;;;;;;;;6155292;23;20000;-77
2022/01/22 00:04:27;;;;;;;7.82;4.07;;;;;;;;;;6155203;23;20332;-78
2022/01/22 00:06:58;;;;;;;6.75;3.42;;;;;;;;;;6154950;23;19998;-77
2022/01/22 00:09:38;;;;;;;;;;;;;;;;;;;;;
2022/01/22 00:12:07;;;;;;;7.30;3.70;;;;;;;;;;6154710;23;20093;-77
2022/01/22 00:14:33;;;;;;;6.40;3.80;;;;;;;;;;6128874;23;20345;-78
2022/01/22 00:17:00;;;;;;;7.38;3.83;;;;;;;;;;6155275;23;20012;-76
2022/01/22 00:19:26;;;;;;;10.00;4.63;;;;;;;;;;6155604;23;20005;-77
2022/01/22 00:21:55;;;;;;;11.18;4.93;;;;;;;;;;6155352;23;20013;-77
2022/01/22 00:24:36;;;;;;;10.48;4.80;;;;;;;;;;6155425;23;20012;-77
2022/01/22 00:27:03;;;;;;;13.95;6.20;;;;;;;;;;6154805;23;20052;-77
2022/01/22 00:29:29;;;;;;;9.15;5.93;;;;;;;;;;6155932;23;19997;-77
2022/01/22 00:31:55;;;;;;;15.27;6.70;;;;;;;;;;6154832;23;20028;-77
2022/01/22 00:34:21;;;;;;;16.40;8.75;;;;;;;;;;6155255;23;20029;-76
2022/01/22 00:36:50;;;;;;;12.23;6.63;;;;;;;;;;6155065;23;20072;-77
2022/01/22 00:39:16;;;;;;;9.02;5.30;;;;;;;;;;6154839;23;20033;-77
2022/01/22 00:41:42;;;;;;;9.80;5.43;;;;;;;;;;6154411;23;20020;-76
2022/01/22 00:44:11;;;;;;;10.15;5.65;;;;;;;;;;6154594;23;20009;-77
2022/01/22 00:46:37;;;;;;;9.30;4.45;;;;;;;;;;6154437;23;20299;-78
2022/01/22 00:49:03;;;;;;;11.20;6.10;;;;;;;;;;6154742;23;20001;-77
2022/01/22 00:51:31;;;;;;;10.98;4.70;;;;;;;;;;6154622;23;20072;-77
2022/01/22 00:54:03;;;;;;;11.20;5.35;;;;;;;;;;6154440;23;20386;-77
2022/01/22 00:56:29;;;;;;;12.65;6.25;;;;;;;;;;6154722;23;20006;-77
2022/01/22 00:58:55;;;;;;;10.23;5.68;;;;;;;;;;6154612;23;20009;-77
2022/01/22 01:01:24;;;;;;;11.27;5.60;;;;;;;;;;6154936;23;20437;-77
2022/01/22 01:04:01;;;;;;;11.30;5.97;;;;;;;;;;6154159;23;20049;-77
2022/01/22 01:06:27;;;;;;;8.57;4.60;;;;;;;;;;6154216;23;20029;-77
2022/01/22 01:08:54;;;;;;;10.80;5.53;;;;;;;;;;6154564;23;20500;-78
2022/01/22 01:11:21;;;;;;;13.02;7.43;;;;;;;;;;6154954;23;20009;-77
2022/01/22 01:13:55;;;;;;;19.65;8.63;;;;;;;;;;6154755;23;20025;-78
2022/01/22 01:32:57;;;;;;;18.10;9.50;;;;;;;;;;6155160;23;19923;-77
2022/01/22 01:35:25;;;;;;;29.13;14.60;;;;;;;;;;6153933;23;20006;-78
2022/01/22 01:37:53;;;;;;;20.02;10.18;;;;;;;;;;6154735;23;20018;-77
2022/01/22 01:40:24;;;;;;;18.52;9.52;;;;;;;;;;6154187;23;20014;-77
2022/01/22 01:45:54;;;;;;;11.55;6.85;;;;;;;;;;6164910;23;20002;-77
2022/01/22 01:48:27;;;;;;;13.93;7.03;;;;;;;;;;6154557;23;20072;-77
2022/01/22 01:51:14;;;;;;;25.58;11.90;;;;;;;;;;6154641;23;20429;-78
2022/01/22 01:54:22;;;;;;;;;;;;;;;;;;;;;
2022/01/22 01:59:33;;;;;;;37.08;19.13;;;;;;;;;;6154332;23;20060;-77
2022/01/22 02:02:01;;;;;;;26.88;15.10;;;;;;;;;;6154640;23;20056;-77
2022/01/22 02:04:28;;;;;;;39.92;20.10;;;;;;;;;;6156381;23;20001;-77
2022/01/22 02:06:55;;;;;;;29.63;15.68;;;;;;;;;;6156620;23;20392;-77
2022/01/22 02:09:21;;;;;;;24.73;13.88;;;;;;;;;;6156922;23;20046;-78
2022/01/22 02:11:56;;;;;;;19.00;9.88;;;;;;;;;;6130209;23;20037;-77
2022/01/22 02:25:21;;;;;;;16.38;7.82;;;;;;;;;;6156656;23;19907;-78
2022/01/22 02:27:47;;;;;;;17.98;8.45;;;;;;;;;;6156117;23;20057;-77
2022/01/22 02:30:19;;;;;;;16.77;9.07;;;;;;;;;;6156463;23;20429;-78
2022/01/22 02:35:29;;;;;;;15.60;9.45;;;;;;;;;;6163632;23;20418;-78
2022/01/22 02:38:03;;;;;;;22.67;12.05;;;;;;;;;;6156376;23;20013;-77
2022/01/22 02:40:35;;;;;;;17.33;8.77;;;;;;;;;;6130158;23;20032;-78
2022/01/22 02:43:01;;;;;;;15.20;8.18;;;;;;;;;;6155715;23;20414;-77
2022/01/22 02:45:31;;;;;;;12.93;6.88;;;;;;;;;;6156297;23;20451;-78
2022/01/22 02:48:05;;;;;;;11.88;6.53;;;;;;;;;;6155080;23;20005;-77
2022/01/22 02:50:38;;;;;;;15.57;9.13;;;;;;;;;;6155949;23;20499;-77
2022/01/22 02:53:08;;;;;;;20.25;10.85;;;;;;;;;;6155931;23;20005;-78
2022/01/22 02:55:44;;;;;;;17.17;7.55;;;;;;;;;;6156131;23;20008;-77
2022/01/22 02:58:36;;;;;;;12.02;6.63;;;;;;;;;;6155722;23;20323;-77
2022/01/22 03:01:25;;;;;;;14.95;6.90;;;;;;;;;;6129622;23;20004;-78
2022/01/22 03:04:12;;;;;;;;;;;;;;;;;;;;;
2022/01/22 03:07:04;;;;;;;15.90;8.68;;;;;;;;;;6155874;23;20084;-77
2022/01/22 03:10:00;;;;;;;15.52;7.45;;;;;;;;;;6155431;23;20012;-78
2022/01/22 03:13:33;;;;;;;;;;;;;;;;;;;;;
2022/01/22 03:22:00;;;;;;;14.93;8.25;;;;;;;;;;6166234;23;20531;-78
2022/01/22 03:27:21;;;;;;;24.75;12.13;;;;;;;;;;6155704;23;20016;-78
2022/01/22 03:29:47;;;;;;;17.52;7.90;;;;;;;;;;6155839;23;20020;-78
2022/01/22 03:32:13;;;;;;;18.90;9.20;;;;;;;;;;6156041;23;20068;-77
2022/01/22 03:34:48;;;;;;;21.30;8.50;;;;;;;;;;6155463;23;19998;-77
2022/01/22 03:37:14;;;;;;;19.05;10.90;;;;;;;;;;6155875;23;20092;-78
2022/01/22 03:39:40;;;;;;;25.63;13.40;;;;;;;;;;6155325;23;20001;-78
2022/01/22 03:42:06;;;;;;;19.67;11.80;;;;;;;;;;6129279;23;20016;-78
2022/01/22 03:44:32;;;;;;;11.38;6.60;;;;;;;;;;6155172;23;20492;-78
2022/01/22 03:46:58;;;;;;;11.98;5.50;;;;;;;;;;6155295;23;20004;-78
2022/01/22 03:49:25;;;;;;;9.07;5.07;;;;;;;;;;6155378;23;20029;-78
2022/01/22 03:51:51;;;;;;;10.35;5.53;;;;;;;;;;6155149;23;20001;-78
2022/01/22 03:54:19;;;;;;;10.35;5.75;;;;;;;;;;6155509;23;20006;-78
2022/01/22 03:56:47;;;;;;;11.32;6.15;;;;;;;;;;6129801;23;20010;-78
2022/01/22 03:59:13;;;;;;;9.63;5.55;;;;;;;;;;6154976;23;20001;-77
2022/01/22 04:02:05;;;;;;;9.27;6.15;;;;;;;;;;6155334;23;20009;-78
2022/01/22 04:07:19;;;;;;;11.10;6.95;;;;;;;;;;6164993;23;20396;-78
2022/01/22 04:09:46;;;;;;;11.82;6.13;;;;;;;;;;6155093;23;20396;-78
2022/01/22 04:12:15;;;;;;;11.75;7.05;;;;;;;;;;6155303;23;20005;-78
2022/01/22 04:14:55;;;;;;;11.02;6.68;;;;;;;;;;6155329;23;20081;-78
2022/01/22 04:25:34;;;;;;;21.02;9.15;;;;;;;;;;6155607;23;19927;-78
2022/01/22 04:28:00;;;;;;;12.05;6.82;;;;;;;;;;6155445;23;20016;-77
2022/01/22 04:30:28;;;;;;;9.05;4.22;;;;;;;;;;6155172;23;20060;-78
2022/01/22 04:32:54;;;;;;;10.20;4.82;;;;;;;;;;6154904;23;20013;-77
2022/01/22 04:35:23;;;;;;;10.80;3.47;;;;;;;;;;6154755;23;20068;-78
2022/01/22 04:37:50;;;;;;;7.03;4.72;;;;;;;;;;6155396;23;20088;-78
2022/01/22 04:40:16;;;;;;;7.82;5.00;;;;;;;;;;6155031;23;20484;-78
2022/01/22 04:42:43;;;;;;;20.50;10.85;;;;;;;;;;6155062;23;20055;-78
2022/01/22 04:47:57;;;;;;;13.52;5.80;;;;;;;;;;6164439;23;20009;-78
2022/01/22 04:55:37;;;;;;;11.60;4.93;;;;;;;;;;6164669;23;20016;-78
2022/01/22 04:58:04;;;;;;;11.43;5.30;;;;;;;;;;6154484;23;20056;-78
2022/01/22 05:00:34;;;;;;;10.98;5.90;;;;;;;;;;6154971;23;20441;-78
2022/01/22 05:03:01;;;;;;;39.08;17.02;;;;;;;;;;6154649;23;20005;-78
2022/01/22 05:05:27;;;;;;;31.30;13.88;;;;;;;;;;6128912;23;20001;-78
2022/01/22 05:07:54;;;;;;;26.98;12.40;;;;;;;;;;6154992;23;20443;-78
2022/01/22 05:10:22;;;;;;;21.70;11.57;;;;;;;;;;6154959;23;20098;-78
2022/01/22 05:12:50;;;;;;;29.33;12.48;;;;;;;;;;6154829;23;20008;-78
2022/01/22 05:15:22;;;;;;;19.02;10.63;;;;;;;;;;6155283;23;20006;-78
2022/01/22 05:17:49;;;;;;;19.75;10.13;;;;;;;;;;6154448;23;20056;-78
2022/01/22 05:20:31;;;;;;;15.95;8.32;;;;;;;;;;6154359;23;20329;-78
2022/01/22 05:23:13;;;;;;;17.67;9.18;;;;;;;;;;6153297;23;20338;-78
2022/01/22 05:25:44;;;;;;;26.55;13.02;;;;;;;;;;6154608;23;20008;-78
2022/01/22 05:31:07;;;;;;;13.48;7.20;;;;;;;;;;6155240;23;20017;-78
2022/01/22 05:39:09;;;;;;;13.88;6.78;;;;;;;;;;6155152;23;20048;-77
2022/01/22 05:41:35;;;;;;;33.17;18.38;;;;;;;;;;6153105;23;20022;-78
2022/01/22 05:44:04;;;;;;;11.05;6.50;;;;;;;;;;6154725;23;20010;-78
2022/01/22 05:46:30;;;;;;;24.20;10.70;;;;;;;;;;6154872;23;20306;-78
2022/01/22 05:49:01;;;;;;;17.20;9.02;;;;;;;;;;6154699;23;20005;-78
2022/01/22 05:51:37;;;;;;;;;;;;;;;;;;;;;
2022/01/22 05:54:44;;;;;;;13.45;7.47;;;;;;;;;;6154881;23;20076;-78
2022/01/22 05:59:47;;;;;;;11.57;7.88;;;;;;;;;;6154408;23;20438;-78
2022/01/22 06:02:18;;;;;;;14.00;6.30;;;;;;;;;;6154428;23;20029;-78
2022/01/22 06:04:44;;;;;;;13.88;7.32;;;;;;;;;;6129122;23;20314;-78
2022/01/22 06:07:11;;;;;;;15.50;9.02;;;;;;;;;;6154555;23;20073;-78
2022/01/22 06:09:41;;;;;;;19.58;11.32;;;;;;;;;;6154407;23;20378;-78
2022/01/22 06:14:36;;;;;;;15.48;8.95;;;;;;;;;;6164495;23;20041;-78
2022/01/22 06:17:04;;;;;;;16.75;10.45;;;;;;;;;;6154282;23;20009;-78
2022/01/22 06:19:31;;;;;;;41.50;24.52;;;;;;;;;;6154194;23;20374;-78
2022/01/22 06:21:59;;;;;;;29.48;17.70;;;;;;;;;;6152558;23;20005;-77
2022/01/22 06:24:25;;;;;;;63.33;31.38;;;;;;;;;;6154456;23;19998;-77
2022/01/22 06:26:51;;;;;;;45.35;23.42;;;;;;;;;;6128431;23;20009;-78
2022/01/22 06:29:20;;;;;;;25.38;12.68;;;;;;;;;;6154711;23;20005;-78
2022/01/22 06:31:46;;;;;;;43.85;25.33;;;;;;;;;;6154764;23;20002;-78
2022/01/22 06:34:12;;;;;;;51.83;29.10;;;;;;;;;;6154532;23;20049;-78
2022/01/22 06:36:44;;;;;;;58.35;28.35;;;;;;;;;;6127963;23;20390;-78
2022/01/22 06:39:19;;;;;;;42.75;22.92;;;;;;;;;;6127935;23;20009;-78
2022/01/22 06:41:46;;;;;;;45.08;25.02;;;;;;;;;;6154444;23;20080;-78
2022/01/22 06:44:34;;;;;;;31.80;18.02;;;;;;;;;;6154353;23;20330;-78
2022/01/22 06:47:02;;;;;;;27.60;15.40;;;;;;;;;;6154677;23;20326;-78
2022/01/22 06:49:32;;;;;;;18.13;10.70;;;;;;;;;;6154970;23;20033;-77
2022/01/22 06:51:58;;;;;;;23.88;15.68;;;;;;;;;;6156713;23;20441;-78
2022/01/22 06:54:24;;;;;;;42.42;20.73;;;;;;;;;;6152947;23;20012;-78
2022/01/22 06:56:50;;;;;;;35.30;17.23;;;;;;;;;;6155901;23;20021;-78
2022/01/22 06:59:43;;;;;;;36.88;19.25;;;;;;;;;;6156056;23;20010;-78
2022/01/22 07:02:17;;;;;;;64.25;28.52;;;;;;;;;;6155776;23;20002;-77
2022/01/22 07:05:00;;;;;;;78.03;32.97;;;;;;;;;;6156596;23;20006;-77
2022/01/22 07:07:50;;;;;;;70.35;29.45;;;;;;;;;;6155893;23;19997;-77
2022/01/22 07:13:40;;;;;;;39.35;18.55;;;;;;;;;;6140191;23;20464;-76
2022/01/22 07:19:17;;;;;;;;;;;;;;;;;;;;;
2022/01/22 07:21:55;;;;;;;15.48;7.70;;;;;;;;;;6156440;23;20080;-77
2022/01/22 07:25:02;;;;;;;14.30;6.88;;;;;;;;;;6133604;23;20010;-76
2022/01/22 07:27:59;;;;;;;;;;;;;;;;;;;;;
2022/01/22 07:30:27;;;;;;;;;;;;;;;;;;;;;
2022/01/22 07:36:24;;;;;;;13.90;6.85;;;;;;;;;;6140847;23;20073;-76
2022/01/22 07:39:01;;;;;;;;;;;;;;;;;;;;;
2022/01/22 07:41:42;;;;;;;;;;;;;;;;;;;;;
2022/01/22 07:44:33;;;;;;;30.20;15.30;;;;;;;;;;6152645;23;20080;-77
2022/01/22 07:47:27;;;;;;;24.42;12.57;;;;;;;;;;6155820;23;19993;-78
2022/01/22 07:52:42;;;;;;;24.00;9.80;;;;;;;;;;6140145;23;20084;-76
2022/01/22 07:55:39;;;;;;;19.55;8.80;;;;;;;;;;6155497;23;20025;-76
2022/01/22 08:04:03;;;;;;;14.60;9.80;;;;;;;;;;6114259;23;20068;-78
2022/01/22 08:07:02;;;;;;;;;;;;;;;;;;;;;
2022/01/22 08:12:25;;;;;;;;;;;;;;;;;;;;;
2022/01/22 08:15:01;;;;;;;14.52;9.15;;;;;;;;;;6155570;23;20084;-77
2022/01/22 08:17:42;;;;;;;9.77;4.15;;;;;;;;;;6155481;23;20013;-77
2022/01/22 08:20:26;;;;;;;;;;;;;;;;;;;;;
2022/01/22 08:23:12;;;;;;;9.47;3.57;;;;;;;;;;6151434;23;20538;-77
2022/01/22 08:26:09;;;;;;;;;;;;;;;;;;;;;
2022/01/22 08:36:56;;;;;;;9.18;3.35;;;;;;;;;;6154651;23;20457;-77
2022/01/22 08:43:05;;;;;;;11.77;6.10;;;;;;;;;;6134945;23;20045;-77
2022/01/22 08:45:37;;;;;;;11.68;7.53;;;;;;;;;;6155012;23;20010;-77
2022/01/22 08:51:20;;;;;;;;;;;;;;;;;;;;;
2022/01/22 08:54:16;;;;;;;;;;;;;;;;;;;;;
2022/01/22 08:57:06;;;;;;;12.05;6.35;;;;;;;;;;6150462;23;20513;-77
2022/01/22 08:59:37;;;;;;;15.63;7.13;;;;;;;;;;6154098;23;20080;-77
2022/01/22 09:02:09;;;;;;;20.23;10.55;;;;;;;;;;6155056;23;20011;-78
2022/01/22 09:04:35;;;;;;;26.05;13.30;;;;;;;;;;6155195;23;20006;-77
2022/01/22 09:07:01;;;;;;;23.45;11.27;;;;;;;;;;6154958;23;20334;-77
2022/01/22 09:09:30;;;;;;;10.70;5.63;;;;;;;;;;6155007;23;20042;-78
2022/01/22 09:11:58;;;;;;;13.05;7.82;;;;;;;;;;6154824;23;20329;-77
2022/01/22 09:14:27;;;;;;;11.98;4.93;;;;;;;;;;6155138;23;20006;-77
2022/01/22 09:16:53;;;;;;;13.57;7.68;;;;;;;;;;6155080;23;20009;-78
2022/01/22 09:19:23;;;;;;;23.42;12.18;;;;;;;;;;6155208;23;20068;-78
2022/01/22 09:21:49;;;;;;;14.18;5.97;;;;;;;;;;6154540;23;20008;-77
2022/01/22 09:24:21;;;;;;;7.57;3.10;;;;;;;;;;6154653;23;20002;-77
2022/01/22 09:26:47;;;;;;;8.27;5.05;;;;;;;;;;6154577;23;20001;-77
2022/01/22 09:32:00;;;;;;;6.70;3.33;;;;;;;;;;6154505;23;20021;-77
2022/01/22 09:34:26;;;;;;;10.50;6.28;;;;;;;;;;6154794;23;20064;-77
2022/01/22 09:36:52;;;;;;;6.50;3.55;;;;;;;;;;6154376;23;20422;-77
2022/01/22 09:39:19;;;;;;;9.70;3.63;;;;;;;;;;6154845;23;20029;-77
2022/01/22 09:41:45;;;;;;;7.75;2.67;;;;;;;;;;6154848;23;20385;-76
2022/01/22 09:44:12;;;;;;;11.48;5.72;;;;;;;;;;6154740;23;19994;-77
2022/01/22 09:46:40;;;;;;;10.95;4.18;;;;;;;;;;6154529;23;20079;-78
2022/01/22 09:49:07;;;;;;;15.13;5.57;;;;;;;;;;6154465;23;20059;-78
2022/01/22 09:51:40;;;;;;;7.18;3.10;;;;;;;;;;6154834;23;20448;-78
2022/01/22 09:54:07;;;;;;;9.68;2.65;;;;;;;;;;6154867;23;20004;-79
2022/01/22 09:56:33;;;;;;;10.75;5.38;;;;;;;;;;6154900;23;20325;-79
2022/01/22 09:59:00;;;;;;;4.85;1.70;;;;;;;;;;6154856;23;20005;-78
2022/01/22 10:01:28;;;;;;;7.80;4.03;;;;;;;;;;6154892;23;20029;-79
2022/01/22 10:03:55;;;;;;;3.45;2.13;;;;;;;;;;6154433;23;20076;-79
2022/01/22 10:06:23;;;;;;;9.35;4.68;;;;;;;;;;6154581;23;20002;-78
2022/01/22 10:09:04;;;;;;;2.38;1.10;;;;;;;;;;6154443;23;20307;-79
2022/01/22 10:11:31;;;;;;;6.75;2.67;;;;;;;;;;6154420;23;19998;-79
2022/01/22 10:13:59;;;;;;;9.93;3.97;;;;;;;;;;6154691;23;20028;-78
2022/01/22 10:16:29;;;;;;;11.38;5.38;;;;;;;;;;6154545;23;19998;-78
2022/01/22 10:19:15;;;;;;;7.97;3.90;;;;;;;;;;6152389;23;19913;-78
2022/01/22 10:22:10;;;;;;;5.55;2.20;;;;;;;;;;6154169;23;20456;-78
2022/01/22 10:30:17;;;;;;;14.05;6.95;;;;;;;;;;6156607;23;20080;-78
2022/01/22 10:33:04;;;;;;;7.90;4.30;;;;;;;;;;6156732;23;20076;-80
2022/01/22 10:35:32;;;;;;;7.15;3.92;;;;;;;;;;6130207;23;20389;-78
2022/01/22 10:37:58;;;;;;;4.90;1.60;;;;;;;;;;6156943;23;20021;-78
2022/01/22 10:40:28;;;;;;;6.72;2.03;;;;;;;;;;6156251;23;20021;-78
2022/01/22 10:43:19;;;;;;;4.78;2.63;;;;;;;;;;6155953;23;20006;-80
2022/01/22 10:48:59;;;;;;;4.43;2.00;;;;;;;;;;6140374;23;20002;-78
2022/01/22 10:51:26;;;;;;;6.85;2.95;;;;;;;;;;6156882;23;20056;-78
2022/01/22 10:53:58;;;;;;;4.57;2.13;;;;;;;;;;6130292;23;20005;-78
2022/01/22 10:56:28;;;;;;;5.82;2.42;;;;;;;;;;6156233;23;20002;-79
2022/01/22 10:58:58;;;;;;;8.80;2.65;;;;;;;;;;6156053;23;20454;-78
2022/01/22 11:01:26;;;;;;;11.32;4.75;;;;;;;;;;6156485;23;20006;-80
2022/01/22 11:04:12;;;;;;;5.20;2.17;;;;;;;;;;6156144;23;20001;-79
2022/01/22 11:06:40;;;;;;;3.63;0.93;;;;;;;;;;6156413;23;20009;-79
2022/01/22 11:09:08;;;;;;;6.45;1.95;;;;;;;;;;6155970;23;20036;-78
2022/01/22 11:11:37;;;;;;;3.33;1.33;;;;;;;;;;6156257;23;20492;-79
2022/01/22 11:17:42;;;;;;;7.80;2.15;;;;;;;;;;6114004;23;20010;-79
2022/01/22 11:20:38;;;;;;;5.38;2.00;;;;;;;;;;6155450;23;20064;-79
2022/01/22 11:23:12;;;;;;;13.30;6.78;;;;;;;;;;6155756;23;20039;-79
2022/01/22 11:26:08;;;;;;;;;;;;;;;;;;;;;
2022/01/22 11:28:38;;;;;;;5.40;2.30;;;;;;;;;;6155686;23;20080;-79
2022/01/22 11:31:18;;;;;;;5.43;2.70;;;;;;;;;;6156121;23;20433;-78
2022/01/22 11:34:35;;;;;;;;;;;;;;;;;;;;;
2022/01/22 11:37:03;;;;;;;15.02;7.70;;;;;;;;;;6136207;23;20010;-80
2022/01/22 11:39:32;;;;;;;16.90;9.63;;;;;;;;;;6129982;23;20370;-77
2022/01/22 11:42:01;;;;;;;6.45;2.72;;;;;;;;;;6155936;23;20018;-78
2022/01/22 11:44:46;;;;;;;5.90;2.08;;;;;;;;;;6155565;23;19994;-78
2022/01/22 11:47:20;;;;;;;6.80;3.45;;;;;;;;;;6155853;23;20009;-77
2022/01/22 11:50:07;;;;;;;4.40;2.67;;;;;;;;;;6155885;23;20008;-79
2022/01/22 11:52:44;;;;;;;2.50;1.67;;;;;;;;;;6155727;23;20009;-80
2022/01/22 11:55:11;;;;;;;9.18;5.35;;;;;;;;;;6156093;23;20016;-78
2022/01/22 11:57:37;;;;;;;11.23;6.68;;;;;;;;;;6155244;23;20006;-78
2022/01/22 12:00:19;;;;;;;17.60;9.38;;;;;;;;;;6155752;23;20012;-78
2022/01/22 12:02:45;;;;;;;15.52;8.70;;;;;;;;;;6155821;23;20383;-78
2022/01/22 12:05:11;;;;;;;9.15;4.45;;;;;;;;;;6155260;23;20001;-79
2022/01/22 12:07:37;;;;;;;7.15;3.58;;;;;;;;;;6155724;23;20076;-77
2022/01/22 12:15:20;;;;;;;3.90;1.60;;;;;;;;;;6165915;23;20017;-79
2022/01/22 12:23:07;;;;;;;12.73;7.68;;;;;;;;;;6155687;23;20024;-78
2022/01/22 12:25:53;;;;;;;8.48;3.58;;;;;;;;;;6155908;23;19997;-78
2022/01/22 12:28:34;;;;;;;5.32;2.78;;;;;;;;;;6133322;23;20084;-78
2022/01/22 12:31:15;;;;;;;3.65;1.60;;;;;;;;;;6155513;23;20558;-78
2022/01/22 12:33:41;;;;;;;9.07;5.40;;;;;;;;;;6155921;23;20052;-79
2022/01/22 12:36:10;;;;;;;4.65;2.85;;;;;;;;;;6128836;23;20476;-80
2022/01/22 12:38:50;;;;;;;5.95;2.75;;;;;;;;;;6129318;23;20456;-80
2022/01/22 12:41:30;;;;;;;5.65;2.80;;;;;;;;;;6155441;23;20017;-80
2022/01/22 12:44:27;;;;;;;4.47;2.33;;;;;;;;;;6155507;23;20057;-80
2022/01/22 12:46:57;;;;;;;13.35;7.70;;;;;;;;;;6154939;23;19998;-79
2022/01/22 12:49:26;;;;;;;9.93;6.13;;;;;;;;;;6155515;23;20006;-80
2022/01/22 12:51:57;;;;;;;8.20;4.45;;;;;;;;;;6155296;23;20076;-78
2022/01/22 12:54:30;;;;;;;4.80;3.03;;;;;;;;;;6129176;23;20345;-79
2022/01/22 12:57:06;;;;;;;12.70;5.53;;;;;;;;;;6155392;23;20453;-78
2022/01/22 12:59:34;;;;;;;7.88;4.90;;;;;;;;;;6143823;23;20101;-77
2022/01/22 13:02:00;;;;;;;15.48;9.18;;;;;;;;;;6154876;23;20001;-78
2022/01/22 13:04:27;;;;;;;9.32;4.55;;;;;;;;;;6155114;23;20006;-79
2022/01/22 13:06:54;;;;;;;14.02;8.10;;;;;;;;;;6155103;23;20338;-78
2022/01/22 13:09:20;;;;;;;14.60;7.32;;;;;;;;;;6129123;23;20380;-78
2022/01/22 13:11:50;;;;;;;22.13;10.70;;;;;;;;;;6155273;23;19998;-78
2022/01/22 13:14:27;;;;;;;9.77;5.30;;;;;;;;;;6155201;23;20028;-77
2022/01/22 13:16:54;;;;;;;17.23;8.52;;;;;;;;;;6155307;23;20001;-77
2022/01/22 13:19:24;;;;;;;14.73;7.95;;;;;;;;;;6155182;23;20008;-78
2022/01/22 13:21:52;;;;;;;13.40;8.02;;;;;;;;;;6154816;23;20001;-78
2022/01/22 13:24:32;;;;;;;;;;;;;;;;;;;;;
2022/01/22 13:27:20;;;;;;;;;;;;;;;;;;;;;
2022/01/22 13:29:53;;;;;;;15.52;7.25;;;;;;;;;;6155156;23;20509;-77
2022/01/22 13:38:43;;;;;;;20.63;12.13;;;;;;;;;;6164947;23;20017;-78
2022/01/22 13:49:30;;;;;;;7.07;3.42;;;;;;;;;;6125524;23;20537;-79
2022/01/22 13:52:03;;;;;;;8.40;4.25;;;;;;;;;;6125690;23;20002;-78
2022/01/22 13:55:05;;;;;;;9.68;5.53;;;;;;;;;;6125605;23;20068;-77
2022/01/22 13:57:35;;;;;;;5.35;2.17;;;;;;;;;;6093621;23;20006;-79
2022/01/22 14:00:10;;;;;;;5.93;2.60;;;;;;;;;;6127854;23;20018;-78
2022/01/22 14:05:28;;;;;;;5.45;2.22;;;;;;;;;;6111561;23;20013;-78
2022/01/22 14:08:13;;;;;;;7.07;3.67;;;;;;;;;;6127712;23;20026;-78
2022/01/22 14:10:40;;;;;;;;;;;;;;;;;;6127912;23;20434;-78
2022/01/22 14:13:13;;;;;;;8.80;5.50;;;;;;;;;;6127773;23;19970;-79
2022/01/22 14:15:45;;;;;;;11.40;6.35;;;;;;;;;;6127461;23;20093;-79
2022/01/22 14:18:18;;;;;;;12.25;7.50;;;;;;;;;;6101145;23;20013;-76
2022/01/22 14:20:55;;;;;;;8.82;5.60;;;;;;;;;;6127448;23;20076;-78
2022/01/22 14:23:30;;;;;;;9.35;3.72;;;;;;;;;;6127360;23;20032;-78
2022/01/22 14:29:04;;;;;;;9.95;5.03;;;;;;;;;;6127042;23;20337;-78
2022/01/22 14:31:39;;;;;;;7.63;4.45;;;;;;;;;;6126754;23;19998;-77
2022/01/22 14:34:12;;;;;;;20.02;11.25;;;;;;;;;;6126972;23;20005;-78
2022/01/22 14:36:40;;;;;;;21.95;13.65;;;;;;;;;;6126717;23;20013;-78
2022/01/22 14:43:47;;;;;;;14.98;10.23;;;;;;;;;;6126987;23;20010;-78
2022/01/22 14:44:54;;;;;;;11.32;5.97;;;;;;;;;;6156373;23;20011;-77
2022/01/22 14:47:22;;;;;;;12.95;6.70;;;;;;;;;;6155806;23;20001;-77
2022/01/22 14:49:51;;;;;;;8.75;4.63;;;;;;;;;;6156070;23;20104;-77
2022/01/22 14:52:26;;;;;;;8.13;4.20;;;;;;;;;;6156185;23;20012;-78
2022/01/22 14:54:53;;;;;;;13.35;9.15;;;;;;;;;;6156356;23;20005;-77
2022/01/22 14:57:23;;;;;;;24.10;13.30;;;;;;;;;;6155590;23;20006;-77
2022/01/22 14:59:49;;;;;;;23.33;13.10;;;;;;;;;;6156856;23;20037;-77
2022/01/22 15:02:16;;;;;;;11.82;6.50;;;;;;;;;;6155969;23;20090;-78
2022/01/22 15:04:45;;;;;;;8.68;5.57;;;;;;;;;;6155836;23;20077;-78
2022/01/22 15:07:15;;;;;;;19.45;10.70;;;;;;;;;;6155899;23;20029;-77
2022/01/22 15:09:42;;;;;;;21.17;14.05;;;;;;;;;;6155407;23;20016;-77
2022/01/22 15:12:11;;;;;;;23.42;11.85;;;;;;;;;;6155848;23;20026;-77
2022/01/22 15:14:39;;;;;;;28.10;17.80;;;;;;;;;;6156204;23;19997;-77
2022/01/22 15:19:42;;;;;;;25.58;15.27;;;;;;;;;;6155854;23;20009;-77
2022/01/22 15:22:19;;;;;;;23.45;14.00;;;;;;;;;;6154037;23;20005;-78
2022/01/22 15:24:49;;;;;;;26.25;17.33;;;;;;;;;;6156095;23;20002;-77
2022/01/22 15:27:21;;;;;;;24.75;17.50;;;;;;;;;;6155515;23;19997;-77
2022/01/22 15:29:58;;;;;;;19.13;11.20;;;;;;;;;;6155859;23;19997;-77
2022/01/22 15:35:21;;;;;;;22.80;14.18;;;;;;;;;;6140473;23;20596;-78
2022/01/22 15:37:51;;;;;;;21.42;13.88;;;;;;;;;;6155755;23;20088;-78
2022/01/22 15:40:18;;;;;;;19.42;12.48;;;;;;;;;;6129478;23;20027;-77
2022/01/22 15:42:44;;;;;;;27.27;19.60;;;;;;;;;;6156113;23;20009;-77
2022/01/22 15:45:11;;;;;;;34.63;22.10;;;;;;;;;;6155974;23;20008;-77
2022/01/22 15:47:37;;;;;;;29.13;17.60;;;;;;;;;;6155906;23;20013;-78
2022/01/22 15:50:04;;;;;;;35.95;18.20;;;;;;;;;;6155810;23;20001;-78
2022/01/22 15:52:31;;;;;;;21.15;11.88;;;;;;;;;;6155753;23;20012;-77
2022/01/22 15:54:57;;;;;;;19.45;10.65;;;;;;;;;;6155627;23;20001;-77
2022/01/22 15:57:24;;;;;;;17.27;9.88;;;;;;;;;;6155740;23;20011;-78
2022/01/22 15:59:50;;;;;;;19.40;11.30;;;;;;;;;;6156305;23;20013;-77
2022/01/22 16:02:18;;;;;;;15.85;11.48;;;;;;;;;;6155286;23;20084;-77
2022/01/22 16:04:49;;;;;;;17.92;12.02;;;;;;;;;;6155646;23;20009;-77
2022/01/22 16:07:23;;;;;;;18.15;11.38;;;;;;;;;;6155346;23;20077;-78
2022/01/22 16:09:53;;;;;;;22.95;16.30;;;;;;;;;;6155975;23;20005;-77
2022/01/22 16:12:19;;;;;;;37.97;23.13;;;;;;;;;;6155330;23;20006;-78
2022/01/22 16:14:46;;;;;;;31.42;18.30;;;;;;;;;;6129543;23;20011;-77
2022/01/22 16:17:16;;;;;;;19.63;13.45;;;;;;;;;;6155179;23;20388;-77
2022/01/22 16:19:42;;;;;;;22.88;13.75;;;;;;;;;;6155509;23;20337;-77
2022/01/22 16:22:08;;;;;;;27.40;15.68;;;;;;;;;;6155095;23;20422;-77
2022/01/22 16:24:35;;;;;;;16.58;10.40;;;;;;;;;;6155689;23;20002;-77
2022/01/22 16:27:02;;;;;;;14.45;9.60;;;;;;;;;;6155645;23;20334;-77
2022/01/22 16:29:32;;;;;;;16.13;10.48;;;;;;;;;;6128491;23;20500;-77
2022/01/22 16:31:58;;;;;;;17.08;10.13;;;;;;;;;;6155269;23;20021;-77
2022/01/22 16:34:24;;;;;;;25.83;14.60;;;;;;;;;;6155287;23;20033;-78
2022/01/22 16:36:50;;;;;;;22.17;12.98;;;;;;;;;;6155508;23;20399;-77
2022/01/22 16:39:17;;;;;;;15.45;9.23;;;;;;;;;;6155344;23;20002;-78
2022/01/22 16:41:43;;;;;;;18.40;10.27;;;;;;;;;;6128738;23;20020;-78
2022/01/22 16:44:25;;;;;;;19.30;12.52;;;;;;;;;;6124749;23;20009;-77
2022/01/22 16:55:02;;;;;;;28.63;17.83;;;;;;;;;;6135604;23;20013;-77
2022/01/22 16:57:34;;;;;;;23.20;14.18;;;;;;;;;;6125225;23;20405;-77
2022/01/22 17:00:05;;;;;;;28.17;18.20;;;;;;;;;;6126474;23;20009;-77
2022/01/22 17:02:35;;;;;;;32.55;21.02;;;;;;;;;;6125581;23;20017;-77
2022/01/22 17:05:11;;;;;;;29.38;16.55;;;;;;;;;;6125474;23;20006;-78
2022/01/22 17:10:47;;;;;;;27.02;17.40;;;;;;;;;;6125495;23;20013;-77
2022/01/22 17:16:01;;;;;;;20.25;11.88;;;;;;;;;;6125694;23;20042;-77
2022/01/22 17:18:31;;;;;;;23.20;13.30;;;;;;;;;;6125297;23;20077;-77
2022/01/22 17:20:57;;;;;;;25.55;14.55;;;;;;;;;;6125606;23;20006;-77
2022/01/22 17:23:23;;;;;;;45.25;27.17;;;;;;;;;;6125121;23;20006;-77
2022/01/22 17:25:49;;;;;;;37.72;22.20;;;;;;;;;;6125979;23;20012;-77
2022/01/22 17:28:17;;;;;;;28.45;16.27;;;;;;;;;;6125243;23;20389;-77
2022/01/22 17:30:47;;;;;;;31.05;17.83;;;;;;;;;;6125487;23;20461;-77
2022/01/22 17:33:19;;;;;;;21.48;12.70;;;;;;;;;;6124486;23;20002;-77
2022/01/22 17:35:46;;;;;;;27.42;15.85;;;;;;;;;;6126012;23;20005;-77
2022/01/22 17:38:12;;;;;;;32.45;18.83;;;;;;;;;;6124739;23;20017;-77
2022/01/22 17:40:40;;;;;;;29.42;18.67;;;;;;;;;;6125372;23;20085;-77
2022/01/22 17:43:09;;;;;;;29.98;18.75;;;;;;;;;;6099414;23;20066;-78
2022/01/22 17:45:35;;;;;;;30.05;19.02;;;;;;;;;;6125634;23;19998;-77
2022/01/22 17:48:02;;;;;;;30.52;19.48;;;;;;;;;;6125222;23;20009;-77
2022/01/22 17:50:28;;;;;;;32.38;20.77;;;;;;;;;;6125076;23;20006;-78
2022/01/22 17:52:54;;;;;;;35.85;22.83;;;;;;;;;;6125355;23;19998;-78
2022/01/22 17:55:20;;;;;;;52.63;32.85;;;;;;;;;;6124997;23;20069;-77
2022/01/22 17:57:46;;;;;;;49.50;32.15;;;;;;;;;;6125036;23;20033;-78
2022/01/22 18:00:13;;;;;;;47.28;27.63;;;;;;;;;;6124994;23;20006;-78
2022/01/22 18:02:39;;;;;;;40.47;24.92;;;;;;;;;;6124644;23;20391;-77
2022/01/22 18:05:11;;;;;;;31.77;19.23;;;;;;;;;;6124994;23;20009;-77
2022/01/22 18:07:37;;;;;;;22.88;16.08;;;;;;;;;;6125119;23;20084;-78
2022/01/22 18:10:03;;;;;;;23.60;14.70;;;;;;;;;;6124761;23;20004;-78
2022/01/22 18:12:29;;;;;;;20.50;12.30;;;;;;;;;;6125481;23;20011;-78
2022/01/22 18:14:55;;;;;;;40.33;26.60;;;;;;;;;;6125462;23;20006;-78
2022/01/22 18:17:22;;;;;;;36.65;23.10;;;;;;;;;;6124826;23;20430;-78
2022/01/22 18:19:48;;;;;;;35.90;22.38;;;;;;;;;;6125188;23;20065;-78